createdAt,value
2018-05-17T00:01:19.286Z,14.50
2018-05-17T00:03:46.739Z,14.50
2018-05-17T00:06:14.220Z,14.50
2018-05-17T00:08:41.666Z,14.60
2018-05-17T00:11:09.147Z,14.40
2018-05-17T00:13:36.595Z,14.30
2018-05-17T00:16:04.123Z,14.20
2018-05-17T00:18:31.550Z,14.30
2018-05-17T00:20:59.771Z,14.40
2018-05-17T00:23:27.211Z,14.40
2018-05-17T00:25:54.687Z,14.30
2018-05-17T00:28:22.203Z,14.30
2018-05-17T00:30:49.743Z,14.30
2018-05-17T00:33:17.207Z,14.30
2018-05-17T00:35:44.745Z,14.20
2018-05-17T00:38:13.665Z,14.20
2018-05-17T00:40:41.131Z,14.20
2018-05-17T00:43:08.587Z,14.10
2018-05-17T00:45:36.042Z,14.00
2018-05-17T00:48:03.493Z,14.00
2018-05-17T00:50:30.966Z,14.00
2018-05-17T00:53:10.507Z,14.10
2018-05-17T00:55:37.954Z,14.20
2018-05-17T00:58:05.409Z,14.20
2018-05-17T01:00:32.891Z,14.10
2018-05-17T01:03:00.355Z,14.10
2018-05-17T01:05:27.986Z,13.90
2018-05-17T01:07:55.470Z,13.90
2018-05-17T01:10:22.951Z,13.90
2018-05-17T01:12:50.417Z,14.00
2018-05-17T01:15:17.868Z,14.00
2018-05-17T01:17:45.306Z,14.00
2018-05-17T01:20:12.787Z,14.00
2018-05-17T01:22:40.228Z,13.90
2018-05-17T01:25:07.675Z,13.90
2018-05-17T01:27:35.119Z,13.70
2018-05-17T01:30:03.359Z,13.70
2018-05-17T01:32:30.810Z,13.60
2018-05-17T01:34:58.277Z,13.70
2018-05-17T01:37:37.522Z,13.90
2018-05-17T01:40:06.503Z,14.00
2018-05-17T01:42:33.950Z,14.00
2018-05-17T01:45:01.422Z,14.00
2018-05-17T01:47:29.004Z,14.10
2018-05-17T01:49:56.462Z,14.00
2018-05-17T01:52:23.897Z,14.00
2018-05-17T01:54:51.376Z,13.80
2018-05-17T01:57:18.829Z,13.70
2018-05-17T01:59:46.306Z,13.70
2018-05-17T02:02:13.849Z,13.80
2018-05-17T02:04:41.315Z,13.80
2018-05-17T02:07:08.758Z,13.80
2018-05-17T02:09:36.240Z,13.60
2018-05-17T02:12:03.687Z,13.40
2018-05-17T02:14:31.134Z,13.60
2018-05-17T02:16:58.588Z,13.50
2018-05-17T02:19:26.032Z,13.50
2018-05-17T02:21:54.264Z,13.30
2018-05-17T02:24:21.750Z,13.30
2018-05-17T02:26:50.003Z,13.30
2018-05-17T02:29:17.479Z,13.20
2018-05-17T02:31:44.939Z,13.20
2018-05-17T02:34:12.389Z,13.20
2018-05-17T02:36:39.838Z,13.10
2018-05-17T02:39:07.294Z,13.00
2018-05-17T02:41:34.776Z,13.20
2018-05-17T02:44:02.243Z,13.00
2018-05-17T02:46:29.690Z,13.10
2018-05-17T02:48:57.270Z,13.10
2018-05-17T02:51:24.723Z,13.20
2018-05-17T02:53:52.183Z,13.10
2018-05-17T02:56:19.638Z,13.10
2018-05-17T02:58:47.115Z,13.10
2018-05-17T03:01:14.692Z,13.30
2018-05-17T03:03:42.126Z,13.20
2018-05-17T03:06:09.598Z,13.20
2018-05-17T03:08:37.043Z,13.30
2018-05-17T03:11:04.500Z,13.20
2018-05-17T03:13:31.944Z,13.30
2018-05-17T03:15:59.458Z,13.30
2018-05-17T03:18:26.891Z,13.20
2018-05-17T03:20:54.358Z,13.30
2018-05-17T03:23:21.810Z,13.20
2018-05-17T03:25:49.270Z,13.00
2018-05-17T03:28:16.719Z,13.10
2018-05-17T03:30:44.187Z,12.90
2018-05-17T03:33:11.629Z,13.10
2018-05-17T03:35:39.201Z,13.00
2018-05-17T03:38:06.701Z,12.80
2018-05-17T03:40:34.227Z,12.80
2018-05-17T03:43:01.668Z,12.80
2018-05-17T03:45:29.893Z,12.80
2018-05-17T03:47:57.354Z,12.90
2018-05-17T03:50:25.812Z,12.70
2018-05-17T03:52:53.269Z,12.70
2018-05-17T03:55:20.767Z,12.70
2018-05-17T03:57:48.219Z,13.10
2018-05-17T04:00:15.763Z,13.10
2018-05-17T04:02:55.034Z,13.30
2018-05-17T04:05:34.250Z,13.30
2018-05-17T04:08:02.659Z,13.40
2018-05-17T04:10:30.103Z,13.50
2018-05-17T04:12:57.563Z,13.30
2018-05-17T04:15:24.998Z,13.30
2018-05-17T04:17:52.452Z,13.50
2018-05-17T04:20:19.883Z,13.40
2018-05-17T04:22:48.107Z,13.30
2018-05-17T04:25:15.573Z,13.30
2018-05-17T04:27:43.050Z,13.20
2018-05-17T04:30:10.497Z,13.00
2018-05-17T04:32:37.963Z,13.10
2018-05-17T04:35:05.418Z,13.10
2018-05-17T04:37:32.871Z,12.90
2018-05-17T04:40:00.347Z,13.20
2018-05-17T04:42:27.810Z,13.20
2018-05-17T04:44:55.256Z,13.20
2018-05-17T04:47:22.743Z,13.20
2018-05-17T04:49:51.698Z,12.90
2018-05-17T04:52:19.183Z,12.90
2018-05-17T04:54:46.742Z,13.00
2018-05-17T04:57:14.119Z,13.30
2018-05-17T04:59:41.996Z,13.30
2018-05-17T05:02:09.555Z,13.20
2018-05-17T05:04:37.014Z,13.30
2018-05-17T05:07:04.575Z,13.60
2018-05-17T05:09:32.150Z,13.50
2018-05-17T05:11:59.512Z,13.50
2018-05-17T05:14:27.062Z,13.60
2018-05-17T05:16:54.691Z,13.60
2018-05-17T05:19:22.199Z,13.70
2018-05-17T05:21:49.751Z,13.70
2018-05-17T05:24:17.215Z,13.50
2018-05-17T05:26:44.658Z,13.40
2018-05-17T05:29:12.111Z,13.30
2018-05-17T05:31:39.555Z,13.20
2018-05-17T05:34:07.763Z,12.90
2018-05-17T05:36:35.204Z,12.80
2018-05-17T05:39:02.699Z,12.90
2018-05-17T05:41:30.144Z,12.90
2018-05-17T05:43:58.363Z,13.20
2018-05-17T05:46:25.822Z,13.20
2018-05-17T05:48:54.080Z,13.30
2018-05-17T05:51:21.513Z,13.30
2018-05-17T05:53:49.006Z,13.20
2018-05-17T05:56:16.467Z,13.40
2018-05-17T05:58:44.031Z,13.50
2018-05-17T06:01:11.562Z,13.50
2018-05-17T06:03:39.061Z,13.60
2018-05-17T06:06:06.511Z,13.70
2018-05-17T06:08:33.963Z,13.60
2018-05-17T06:11:01.411Z,13.50
2018-05-17T06:13:28.877Z,13.30
2018-05-17T06:15:56.359Z,13.20
2018-05-17T06:18:23.825Z,13.40
2018-05-17T06:20:51.303Z,13.40
2018-05-17T06:23:20.374Z,13.50
2018-05-17T06:25:47.846Z,13.40
2018-05-17T06:28:15.323Z,13.50
2018-05-17T06:30:42.768Z,13.30
2018-05-17T06:33:10.331Z,13.40
2018-05-17T06:35:37.792Z,13.20
2018-05-17T06:38:05.250Z,13.20
2018-05-17T06:40:32.719Z,13.20
2018-05-17T06:43:00.286Z,13.30
2018-05-17T06:45:27.859Z,13.30
2018-05-17T06:47:55.311Z,13.30
2018-05-17T06:50:22.839Z,13.50
2018-05-17T06:52:50.282Z,13.60
2018-05-17T06:55:18.508Z,13.60
2018-05-17T06:57:45.983Z,13.60
2018-05-17T07:00:13.439Z,13.70
2018-05-17T07:02:40.894Z,13.80
2018-05-17T07:05:08.459Z,13.90
2018-05-17T07:07:35.911Z,14.00
2018-05-17T07:10:03.375Z,14.10
2018-05-17T07:12:30.831Z,14.00
2018-05-17T07:14:58.299Z,14.00
2018-05-17T07:17:25.760Z,14.10
2018-05-17T07:19:53.206Z,14.10
2018-05-17T07:22:20.777Z,14.20
2018-05-17T07:24:48.246Z,14.30
2018-05-17T07:27:15.678Z,14.20
2018-05-17T07:29:43.174Z,14.00
2018-05-17T07:32:10.606Z,14.10
2018-05-17T07:34:38.083Z,14.10
2018-05-17T07:37:05.527Z,13.90
2018-05-17T07:39:33.021Z,14.00
2018-05-17T07:42:00.460Z,14.00
2018-05-17T07:44:27.907Z,14.10
2018-05-17T07:46:55.338Z,14.40
2018-05-17T07:49:23.572Z,14.90
2018-05-17T07:51:51.114Z,14.90
2018-05-17T07:54:18.606Z,15.00
2018-05-17T07:56:46.063Z,15.00
2018-05-17T07:59:13.534Z,15.00
2018-05-17T08:01:41.073Z,15.10
2018-05-17T08:04:08.559Z,15.00
2018-05-17T08:06:35.995Z,14.90
2018-05-17T08:09:03.443Z,15.00
2018-05-17T08:11:30.935Z,15.00
2018-05-17T08:13:58.387Z,15.20
2018-05-17T08:16:25.855Z,15.20
2018-05-17T08:18:53.322Z,15.20
2018-05-17T08:21:20.760Z,15.40
2018-05-17T08:23:48.210Z,15.50
2018-05-17T08:26:15.702Z,15.50
2018-05-17T08:28:43.187Z,15.60
2018-05-17T08:31:10.630Z,15.60
2018-05-17T08:33:38.099Z,15.70
2018-05-17T08:36:05.550Z,15.80
2018-05-17T08:38:33.007Z,16.00
2018-05-17T08:41:00.483Z,16.10
2018-05-17T08:43:27.922Z,16.00
2018-05-17T08:45:55.446Z,15.90
2018-05-17T08:48:23.656Z,16.20
2018-05-17T08:50:51.139Z,16.20
2018-05-17T08:53:18.694Z,16.50
2018-05-17T08:55:46.171Z,16.60
2018-05-17T08:58:13.610Z,16.80
2018-05-17T09:00:41.082Z,17.00
2018-05-17T09:03:09.091Z,17.20
2018-05-17T09:05:37.310Z,17.30
2018-05-17T09:08:04.751Z,17.30
2018-05-17T09:10:32.254Z,17.40
2018-05-17T09:12:59.714Z,17.40
2018-05-17T09:15:27.158Z,17.40
2018-05-17T09:17:54.607Z,17.20
2018-05-17T09:20:22.118Z,17.10
2018-05-17T09:22:49.577Z,17.30
2018-05-17T09:25:17.750Z,17.20
2018-05-17T09:27:45.194Z,17.20
2018-05-17T09:30:12.676Z,17.30
2018-05-17T09:32:40.218Z,17.30
2018-05-17T09:35:07.675Z,17.20
2018-05-17T09:37:35.132Z,17.20
2018-05-17T09:40:02.592Z,17.30
2018-05-17T09:42:30.055Z,17.30
2018-05-17T09:44:57.499Z,17.50
2018-05-17T09:47:25.819Z,17.60
2018-05-17T09:49:53.271Z,17.70
2018-05-17T09:52:20.746Z,17.70
2018-05-17T09:54:48.207Z,17.60
2018-05-17T09:57:15.638Z,17.70
2018-05-17T09:59:43.091Z,17.80
2018-05-17T10:02:10.535Z,17.90
2018-05-17T10:04:38.758Z,17.80
2018-05-17T10:07:06.199Z,17.80
2018-05-17T10:09:33.652Z,17.70
2018-05-17T10:12:01.094Z,17.70
2018-05-17T10:14:29.455Z,17.80
2018-05-17T10:16:56.886Z,17.80
2018-05-17T10:19:24.358Z,18.00
2018-05-17T10:21:51.897Z,18.10
2018-05-17T10:24:19.272Z,18.20
2018-05-17T10:26:46.724Z,18.10
2018-05-17T10:29:14.172Z,18.30
2018-05-17T10:31:41.654Z,18.30
2018-05-17T10:34:09.106Z,18.40
2018-05-17T10:36:36.559Z,18.50
2018-05-17T10:39:04.000Z,18.50
2018-05-17T10:41:31.506Z,18.50
2018-05-17T10:43:58.962Z,18.50
2018-05-17T10:46:26.415Z,18.50
2018-05-17T10:48:53.901Z,18.60
2018-05-17T10:51:21.320Z,18.60
2018-05-17T10:53:48.913Z,18.70
2018-05-17T10:56:16.372Z,18.60
2018-05-17T10:58:43.833Z,18.50
2018-05-17T11:01:11.289Z,18.50
2018-05-17T11:03:38.777Z,18.50
2018-05-17T11:06:06.227Z,18.50
2018-05-17T11:08:33.682Z,18.50
2018-05-17T11:11:01.144Z,18.50
2018-05-17T11:13:28.607Z,18.60
2018-05-17T11:15:56.066Z,18.60
2018-05-17T11:18:23.536Z,18.70
2018-05-17T11:20:50.999Z,18.70
2018-05-17T11:23:18.460Z,18.80
2018-05-17T11:25:45.916Z,18.90
2018-05-17T11:28:13.358Z,19.00
2018-05-17T11:30:40.830Z,19.00
2018-05-17T11:33:08.731Z,19.10
2018-05-17T11:35:36.127Z,19.20
2018-05-17T11:38:03.570Z,19.20
2018-05-17T11:40:31.769Z,19.40
2018-05-17T11:42:59.257Z,19.40
2018-05-17T11:45:26.695Z,19.50
2018-05-17T11:47:54.191Z,19.50
2018-05-17T11:50:21.672Z,19.50
2018-05-17T11:52:49.128Z,19.60
2018-05-17T11:55:16.570Z,19.60
2018-05-17T11:57:44.074Z,19.70
2018-05-17T12:00:12.307Z,19.70
2018-05-17T12:02:39.900Z,19.60
2018-05-17T12:05:07.311Z,19.70
2018-05-17T12:07:34.775Z,19.70
2018-05-17T12:10:02.275Z,19.80
2018-05-17T12:12:29.829Z,19.80
2018-05-17T12:14:57.291Z,19.70
2018-05-17T12:17:24.738Z,19.80
2018-05-17T12:19:52.211Z,19.90
2018-05-17T12:22:19.665Z,19.90
2018-05-17T12:24:47.104Z,19.80
2018-05-17T12:27:14.611Z,19.80
2018-05-17T12:29:42.051Z,20.00
2018-05-17T12:32:09.493Z,20.10
2018-05-17T12:34:37.791Z,20.10
2018-05-17T12:37:05.342Z,20.10
2018-05-17T12:39:32.689Z,20.00
2018-05-17T12:42:00.134Z,20.20
2018-05-17T12:44:27.626Z,20.30
2018-05-17T12:46:55.120Z,20.40
2018-05-17T12:49:22.559Z,20.50
2018-05-17T12:51:50.031Z,20.50
2018-05-17T12:54:17.466Z,20.50
2018-05-17T12:56:45.006Z,20.50
2018-05-17T12:59:12.415Z,20.50
2018-05-17T13:01:39.872Z,20.60
2018-05-17T13:04:07.337Z,20.70
2018-05-17T13:06:34.822Z,20.60
2018-05-17T13:09:02.354Z,20.70
2018-05-17T13:11:29.938Z,20.70
2018-05-17T13:13:57.388Z,20.60
2018-05-17T13:16:24.954Z,20.70
2018-05-17T13:18:52.398Z,21.00
2018-05-17T13:21:19.859Z,22.10
2018-05-17T13:23:47.326Z,23.00
2018-05-17T13:26:14.762Z,23.70
2018-05-17T13:28:42.219Z,23.80
2018-05-17T13:31:09.723Z,23.70
2018-05-17T13:33:37.187Z,24.20
2018-05-17T13:36:04.647Z,24.50
2018-05-17T13:38:32.212Z,24.70
2018-05-17T13:40:59.659Z,24.80
2018-05-17T13:43:27.148Z,25.00
2018-05-17T13:45:54.666Z,25.00
2018-05-17T13:48:22.151Z,25.30
2018-05-17T13:50:49.612Z,25.20
2018-05-17T13:53:17.151Z,25.20
2018-05-17T13:55:44.616Z,25.10
2018-05-17T13:58:12.099Z,25.40
2018-05-17T14:00:39.568Z,26.10
2018-05-17T14:03:07.028Z,26.20
2018-05-17T14:05:34.483Z,26.10
2018-05-17T14:08:01.943Z,26.30
2018-05-17T14:10:29.412Z,26.40
2018-05-17T14:12:56.863Z,26.60
2018-05-17T14:15:24.424Z,26.80
2018-05-17T14:17:51.899Z,26.70
2018-05-17T14:20:19.342Z,27.20
2018-05-17T14:22:46.814Z,27.20
2018-05-17T14:25:14.253Z,27.30
2018-05-17T14:27:41.707Z,27.20
2018-05-17T14:30:09.203Z,26.30
2018-05-17T14:32:36.646Z,26.00
2018-05-17T14:35:04.099Z,25.70
2018-05-17T14:37:31.538Z,25.70
2018-05-17T14:39:59.750Z,25.30
2018-05-17T14:42:27.239Z,25.20
2018-05-17T14:44:54.764Z,25.10
2018-05-17T14:47:22.279Z,24.90
2018-05-17T14:49:49.722Z,24.80
2018-05-17T14:52:17.299Z,24.80
2018-05-17T14:54:46.263Z,24.90
2018-05-17T14:57:13.774Z,24.90
2018-05-17T14:59:41.216Z,25.60
2018-05-17T15:02:08.652Z,26.50
2018-05-17T15:04:36.118Z,27.00
2018-05-17T15:07:03.578Z,27.50
2018-05-17T15:09:31.039Z,28.10
2018-05-17T15:11:58.465Z,28.50
2018-05-17T15:14:25.958Z,28.10
2018-05-17T15:16:53.411Z,26.70
2018-05-17T15:19:20.866Z,25.70
2018-05-17T15:21:48.311Z,25.00
2018-05-17T15:24:15.754Z,24.50
2018-05-17T15:26:44.012Z,23.90
2018-05-17T15:29:11.467Z,23.90
2018-05-17T15:31:38.986Z,23.80
2018-05-17T15:34:06.479Z,23.90
2018-05-17T15:36:33.940Z,24.20
2018-05-17T15:39:01.392Z,24.70
2018-05-17T15:41:28.862Z,24.90
2018-05-17T15:43:56.359Z,25.00
2018-05-17T15:46:23.787Z,24.80
2018-05-17T15:48:51.298Z,24.50
2018-05-17T15:51:19.532Z,24.30
2018-05-17T15:53:46.983Z,24.20
2018-05-17T15:56:14.551Z,24.00
2018-05-17T15:58:42.011Z,23.70
2018-05-17T16:01:09.460Z,23.30
2018-05-17T16:03:36.907Z,23.00
2018-05-17T16:06:04.470Z,22.40
2018-05-17T16:08:31.996Z,22.10
2018-05-17T16:11:00.114Z,21.50
2018-05-17T16:13:27.643Z,21.50
2018-05-17T16:15:55.031Z,21.20
2018-05-17T16:18:22.498Z,21.00
2018-05-17T16:20:49.936Z,20.70
2018-05-17T16:23:18.165Z,20.60
2018-05-17T16:25:45.644Z,20.60
2018-05-17T16:28:13.187Z,20.50
2018-05-17T16:30:40.634Z,20.30
2018-05-17T16:33:08.074Z,20.20
2018-05-17T16:35:35.527Z,20.10
2018-05-17T16:38:03.752Z,20.10
2018-05-17T16:40:31.202Z,20.00
2018-05-17T16:42:58.682Z,19.90
2018-05-17T16:45:26.238Z,19.90
2018-05-17T16:47:53.694Z,19.80
2018-05-17T16:50:21.143Z,19.80
2018-05-17T16:52:48.610Z,19.70
2018-05-17T16:55:16.074Z,19.60
2018-05-17T16:57:43.521Z,19.50
2018-05-17T17:00:10.978Z,19.50
2018-05-17T17:02:38.410Z,19.60
2018-05-17T17:05:06.677Z,19.50
2018-05-17T17:07:34.132Z,19.50
2018-05-17T17:10:01.576Z,19.50
2018-05-17T17:12:29.104Z,19.30
2018-05-17T17:14:56.621Z,19.30
2018-05-17T17:17:24.051Z,19.30
2018-05-17T17:19:51.592Z,19.30
2018-05-17T17:22:19.090Z,19.20
2018-05-17T17:24:46.616Z,19.10
2018-05-17T17:27:14.062Z,19.00
2018-05-17T17:29:41.575Z,18.90
2018-05-17T17:32:09.017Z,18.80
2018-05-17T17:34:36.561Z,18.70
2018-05-17T17:37:04.051Z,18.60
2018-05-17T17:39:31.506Z,18.60
2018-05-17T17:41:58.981Z,18.50
2018-05-17T17:44:26.431Z,18.50
2018-05-17T17:46:53.867Z,18.40
2018-05-17T17:49:21.323Z,18.30
2018-05-17T17:51:48.839Z,18.20
2018-05-17T17:54:16.378Z,18.10
2018-05-17T17:56:43.829Z,18.10
2018-05-17T17:59:11.380Z,18.00
2018-05-17T18:01:38.870Z,17.90
2018-05-17T18:04:06.311Z,17.90
2018-05-17T18:06:33.835Z,17.80
2018-05-17T18:09:01.276Z,17.80
2018-05-17T18:11:28.817Z,17.70
2018-05-17T18:13:56.424Z,17.70
2018-05-17T18:16:23.955Z,17.50
2018-05-17T18:18:51.406Z,17.40
2018-05-17T18:21:18.886Z,17.40
2018-05-17T18:23:46.307Z,17.30
2018-05-17T18:26:14.068Z,17.40
2018-05-17T18:28:41.503Z,17.30
2018-05-17T18:31:09.734Z,17.10
2018-05-17T18:33:37.202Z,17.10
2018-05-17T18:36:05.013Z,17.00
2018-05-17T18:38:32.491Z,17.00
2018-05-17T18:40:59.990Z,16.90
2018-05-17T18:43:27.458Z,16.90
2018-05-17T18:45:54.927Z,16.80
2018-05-17T18:48:22.411Z,16.80
2018-05-17T18:50:50.664Z,16.60
2018-05-17T18:53:18.130Z,16.60
2018-05-17T18:55:45.586Z,16.50
2018-05-17T18:58:13.042Z,16.50
2018-05-17T19:00:40.498Z,16.40
2018-05-17T19:03:08.018Z,16.30
2018-05-17T19:05:36.242Z,16.10
2018-05-17T19:08:03.715Z,16.10
2018-05-17T19:10:31.170Z,16.10
2018-05-17T19:12:58.647Z,16.10
2018-05-17T19:15:26.083Z,16.00
2018-05-17T19:17:53.530Z,16.00
2018-05-17T19:20:21.025Z,16.00
2018-05-17T19:22:48.453Z,15.90
2018-05-17T19:25:16.057Z,15.90
2018-05-17T19:27:43.505Z,15.80
2018-05-17T19:30:10.939Z,15.70
2018-05-17T19:32:38.406Z,15.70
2018-05-17T19:35:05.855Z,15.60
2018-05-17T19:37:33.315Z,15.60
2018-05-17T19:40:00.823Z,15.50
2018-05-17T19:42:28.387Z,15.50
2018-05-17T19:44:55.834Z,15.40
2018-05-17T19:47:23.353Z,15.30
2018-05-17T19:49:50.743Z,15.30
2018-05-17T19:52:18.210Z,15.20
2018-05-17T19:54:45.682Z,15.20
2018-05-17T19:57:13.215Z,15.10
2018-05-17T19:59:40.643Z,15.20
2018-05-17T20:02:08.902Z,15.10
2018-05-17T20:04:37.878Z,15.00
2018-05-17T20:07:05.321Z,15.00
2018-05-17T20:09:32.889Z,15.00
2018-05-17T20:12:00.359Z,14.90
2018-05-17T20:14:27.829Z,14.80
2018-05-17T20:16:55.286Z,14.80
2018-05-17T20:19:22.826Z,14.80
2018-05-17T20:21:50.266Z,14.70
2018-05-17T20:24:18.510Z,14.60
2018-05-17T20:26:46.067Z,14.60
2018-05-17T20:29:13.545Z,14.60
2018-05-17T20:31:40.999Z,14.60
2018-05-17T20:34:08.442Z,14.60
2018-05-17T20:36:36.061Z,14.60
2018-05-17T20:39:03.465Z,14.60
2018-05-17T20:41:30.937Z,14.60
2018-05-17T20:43:58.389Z,14.50
2018-05-17T20:46:25.871Z,14.50
2018-05-17T20:48:53.322Z,14.60
2018-05-17T20:51:20.846Z,14.50
2018-05-17T20:53:48.280Z,14.50
2018-05-17T20:56:16.523Z,14.50
2018-05-17T20:58:44.036Z,14.50
2018-05-17T21:01:11.747Z,14.50
2018-05-17T21:03:39.189Z,14.50
2018-05-17T21:06:06.642Z,14.60
2018-05-17T21:08:34.081Z,14.60
2018-05-17T21:11:01.544Z,14.60
2018-05-17T21:13:29.180Z,14.60
2018-05-17T21:15:57.431Z,14.40
2018-05-17T21:18:24.914Z,14.40
2018-05-17T21:20:52.363Z,14.40
2018-05-17T21:23:19.802Z,14.40
2018-05-17T21:25:47.243Z,14.40
2018-05-17T21:28:14.703Z,14.40
2018-05-17T21:30:42.143Z,14.40
2018-05-17T21:33:10.383Z,14.30
2018-05-17T21:35:37.833Z,14.30
2018-05-17T21:38:05.314Z,14.30
2018-05-17T21:40:32.754Z,14.40
2018-05-17T21:43:00.237Z,14.20
2018-05-17T21:45:27.699Z,14.10
2018-05-17T21:47:55.168Z,14.10
2018-05-17T21:50:22.687Z,14.00
2018-05-17T21:52:50.127Z,14.00
2018-05-17T21:55:17.579Z,14.00
2018-05-17T21:57:45.810Z,13.90
2018-05-17T22:00:13.268Z,13.90
2018-05-17T22:02:40.768Z,14.00
2018-05-17T22:05:08.286Z,14.00
2018-05-17T22:07:35.692Z,14.00
2018-05-17T22:10:03.095Z,14.00
2018-05-17T22:12:30.555Z,13.90
2018-05-17T22:14:58.054Z,13.80
2018-05-17T22:17:25.605Z,13.70
2018-05-17T22:19:53.115Z,13.70
2018-05-17T22:22:20.494Z,13.70
2018-05-17T22:24:47.955Z,13.70
2018-05-17T22:27:15.394Z,13.60
2018-05-17T22:29:43.636Z,13.50
2018-05-17T22:32:11.202Z,13.50
2018-05-17T22:34:38.671Z,13.50
2018-05-17T22:37:06.128Z,13.50
2018-05-17T22:39:33.574Z,13.40
2018-05-17T22:42:01.033Z,13.40
2018-05-17T22:44:28.481Z,13.40
2018-05-17T22:46:55.923Z,13.40
2018-05-17T22:49:23.432Z,13.30
2018-05-17T22:51:50.905Z,13.40
2018-05-17T22:54:18.346Z,13.30
2018-05-17T22:56:57.855Z,13.40
2018-05-17T22:59:25.344Z,13.40
2018-05-17T23:01:52.801Z,13.30
2018-05-17T23:04:20.243Z,13.30
2018-05-17T23:06:47.703Z,13.20
2018-05-17T23:09:15.199Z,13.20
2018-05-17T23:11:42.656Z,13.20
2018-05-17T23:14:10.112Z,13.20
2018-05-17T23:16:37.558Z,13.20
2018-05-17T23:19:05.047Z,13.20
2018-05-17T23:21:32.482Z,13.20
2018-05-17T23:23:59.948Z,13.20
2018-05-17T23:26:27.394Z,13.20
2018-05-17T23:28:54.852Z,13.30
2018-05-17T23:31:22.291Z,13.30
2018-05-17T23:33:50.507Z,13.20
2018-05-17T23:36:17.955Z,13.20
2018-05-17T23:38:45.447Z,13.20
2018-05-17T23:41:24.773Z,13.20
2018-05-17T23:43:52.223Z,13.20
2018-05-17T23:46:19.687Z,13.20
2018-05-17T23:48:47.167Z,13.10
2018-05-17T23:51:14.632Z,13.00
2018-05-17T23:53:42.177Z,13.00
2018-05-17T23:56:09.641Z,12.90
2018-05-17T23:58:37.092Z,12.90
